createdAt,value
2022-07-26T00:02:01.457Z,22.03
2022-07-26T00:05:05.835Z,21.85
2022-07-26T00:08:11.786Z,21.98
2022-07-26T00:11:15.732Z,21.94
2022-07-26T00:14:18.565Z,21.93
2022-07-26T00:17:21.465Z,21.85
2022-07-26T00:20:24.217Z,21.87
2022-07-26T00:23:30.761Z,21.77
2022-07-26T00:26:33.929Z,21.78
2022-07-26T00:29:37.196Z,21.68
2022-07-26T00:32:39.905Z,21.63
2022-07-26T00:35:42.892Z,21.55
2022-07-26T00:38:45.743Z,21.45
2022-07-26T00:41:48.694Z,21.38
2022-07-26T00:44:51.527Z,21.26
2022-07-26T00:47:54.642Z,21.30
2022-07-26T00:50:57.708Z,21.36
2022-07-26T00:54:00.755Z,21.31
2022-07-26T00:57:03.821Z,21.33
2022-07-26T01:00:10.062Z,21.29
2022-07-26T01:03:12.888Z,21.18
2022-07-26T01:06:16.004Z,21.13
2022-07-26T01:09:19.676Z,21.09
2022-07-26T01:12:22.641Z,21.14
2022-07-26T01:15:25.285Z,21.07
2022-07-26T01:18:28.272Z,21.07
2022-07-26T01:21:31.631Z,21.00
2022-07-26T01:24:34.681Z,21.08
2022-07-26T01:27:40.399Z,21.10
2022-07-26T01:30:43.381Z,21.00
2022-07-26T01:33:46.312Z,20.86
2022-07-26T01:36:49.412Z,20.91
2022-07-26T01:39:52.153Z,20.86
2022-07-26T01:42:55.256Z,20.84
2022-07-26T01:45:58.106Z,20.74
2022-07-26T01:49:01.881Z,20.63
2022-07-26T01:52:05.063Z,20.44
2022-07-26T01:55:08.889Z,20.49
2022-07-26T01:58:11.611Z,20.46
2022-07-26T02:01:14.670Z,20.41
2022-07-26T02:04:36.286Z,20.36
2022-07-26T02:07:44.449Z,20.25
2022-07-26T02:11:04.058Z,20.26
2022-07-26T02:14:07.049Z,20.21
2022-07-26T02:17:10.745Z,20.17
2022-07-26T02:20:16.961Z,20.07
2022-07-26T02:23:21.102Z,20.12
2022-07-26T02:26:23.767Z,20.05
2022-07-26T02:29:27.251Z,20.04
2022-07-26T02:32:29.808Z,19.99
2022-07-26T02:35:32.793Z,19.90
2022-07-26T02:38:35.331Z,19.80
2022-07-26T02:41:38.728Z,19.70
2022-07-26T02:44:41.866Z,19.65
2022-07-26T02:47:54.147Z,19.65
2022-07-26T02:50:56.764Z,19.58
2022-07-26T02:53:59.761Z,19.62
2022-07-26T02:57:02.456Z,19.57
2022-07-26T03:00:06.478Z,19.65
2022-07-26T03:03:14.116Z,19.71
2022-07-26T03:06:18.336Z,19.67
2022-07-26T03:09:21.002Z,19.59
2022-07-26T03:12:25.189Z,19.55
2022-07-26T03:15:27.845Z,19.44
2022-07-26T03:18:31.102Z,19.65
2022-07-26T03:21:33.763Z,19.65
2022-07-26T03:24:37.453Z,19.59
2022-07-26T03:27:40.266Z,19.40
2022-07-26T03:30:43.324Z,19.44
2022-07-26T03:33:46.068Z,19.47
2022-07-26T03:36:49.430Z,19.47
2022-07-26T03:39:52.228Z,19.40
2022-07-26T03:42:55.477Z,19.30
2022-07-26T03:45:58.105Z,19.46
2022-07-26T03:49:01.583Z,19.51
2022-07-26T03:52:04.367Z,19.50
2022-07-26T03:55:26.611Z,19.59
2022-07-26T03:58:29.583Z,19.59
2022-07-26T04:01:33.226Z,19.58
2022-07-26T04:04:36.179Z,19.72
2022-07-26T04:07:52.555Z,19.70
2022-07-26T04:10:56.497Z,19.71
2022-07-26T04:14:00.298Z,19.79
2022-07-26T04:17:03.303Z,19.91
2022-07-26T04:20:07.635Z,20.07
2022-07-26T04:23:12.305Z,20.16
2022-07-26T04:26:15.294Z,20.15
2022-07-26T04:29:18.184Z,20.29
2022-07-26T04:32:20.897Z,20.57
2022-07-26T04:35:24.169Z,20.69
2022-07-26T04:38:26.958Z,20.82
2022-07-26T04:41:30.858Z,21.08
2022-07-26T04:44:33.576Z,21.30
2022-07-26T04:47:36.744Z,21.40
2022-07-26T04:50:39.924Z,21.81
2022-07-26T04:53:42.827Z,22.11
2022-07-26T04:56:45.453Z,22.20
2022-07-26T05:00:03.347Z,22.38
2022-07-26T05:03:11.237Z,22.63
2022-07-26T05:06:14.455Z,22.94
2022-07-26T05:09:17.584Z,23.28
2022-07-26T05:12:20.471Z,23.58
2022-07-26T05:15:23.388Z,23.90
2022-07-26T05:18:27.195Z,24.14
2022-07-26T05:21:32.007Z,24.48
2022-07-26T05:24:34.935Z,24.76
2022-07-26T05:27:39.027Z,24.97
2022-07-26T05:30:42.042Z,25.16
2022-07-26T05:33:44.695Z,25.39
2022-07-26T05:36:47.684Z,25.73
2022-07-26T05:39:50.648Z,26.10
2022-07-26T05:42:53.732Z,26.48
2022-07-26T05:45:57.028Z,26.72
2022-07-26T05:49:00.083Z,26.98
2022-07-26T05:52:03.623Z,27.40
2022-07-26T05:55:07.385Z,27.63
2022-07-26T05:58:10.093Z,27.85
2022-07-26T06:01:13.145Z,28.00
2022-07-26T06:04:16.311Z,28.26
2022-07-26T06:07:19.056Z,28.49
2022-07-26T06:10:22.031Z,28.71
2022-07-26T06:13:24.659Z,28.94
2022-07-26T06:16:27.674Z,29.01
2022-07-26T06:19:31.083Z,29.07
2022-07-26T06:22:34.069Z,29.08
2022-07-26T06:25:36.883Z,29.19
2022-07-26T06:28:39.975Z,29.36
2022-07-26T06:31:42.699Z,29.45
2022-07-26T06:34:45.769Z,29.56
2022-07-26T06:37:48.459Z,29.66
2022-07-26T06:40:51.556Z,29.74
2022-07-26T06:43:54.222Z,29.93
2022-07-26T06:46:57.281Z,30.07
2022-07-26T06:49:59.941Z,30.24
2022-07-26T06:53:02.936Z,30.16
2022-07-26T06:56:06.052Z,30.46
2022-07-26T06:59:09.621Z,30.47
2022-07-26T07:02:12.447Z,30.50
2022-07-26T07:05:15.675Z,30.81
2022-07-26T07:08:18.723Z,31.04
2022-07-26T07:11:23.060Z,31.58
2022-07-26T07:14:25.765Z,31.74
2022-07-26T07:17:28.780Z,31.51
2022-07-26T07:20:31.603Z,31.36
2022-07-26T07:23:34.581Z,31.32
2022-07-26T07:26:37.301Z,31.66
2022-07-26T07:29:42.119Z,32.10
2022-07-26T07:32:46.085Z,32.24
2022-07-26T07:35:49.044Z,32.26
2022-07-26T07:38:51.997Z,31.91
2022-07-26T07:41:54.957Z,31.84
2022-07-26T07:44:57.598Z,31.72
2022-07-26T07:48:00.575Z,32.22
2022-07-26T07:51:03.244Z,32.44
2022-07-26T07:54:07.254Z,32.55
2022-07-26T07:57:11.230Z,32.36
2022-07-26T08:00:19.469Z,32.49
2022-07-26T08:03:38.929Z,32.53
2022-07-26T08:06:42.296Z,32.51
2022-07-26T08:09:53.292Z,32.43
2022-07-26T08:12:55.949Z,32.41
2022-07-26T08:15:59.306Z,32.58
2022-07-26T08:19:03.833Z,32.45
2022-07-26T08:22:08.356Z,32.69
2022-07-26T08:25:11.113Z,32.74
2022-07-26T08:28:37.533Z,32.94
2022-07-26T08:31:37.032Z,33.09
2022-07-26T08:34:40.009Z,32.70
2022-07-26T08:37:42.753Z,32.83
2022-07-26T08:40:45.772Z,33.29
2022-07-26T08:43:51.653Z,33.55
2022-07-26T08:46:55.586Z,33.69
2022-07-26T08:49:58.374Z,33.72
2022-07-26T08:53:04.169Z,33.74
2022-07-26T08:56:07.792Z,33.84
2022-07-26T08:59:20.541Z,33.71
2022-07-26T09:02:40.541Z,33.75
2022-07-26T09:05:43.455Z,33.86
2022-07-26T09:08:53.620Z,34.03
2022-07-26T09:11:57.708Z,34.29
2022-07-26T09:15:01.643Z,34.40
2022-07-26T09:18:06.011Z,34.69
2022-07-26T09:21:25.626Z,34.96
2022-07-26T09:24:35.759Z,35.27
2022-07-26T09:27:38.493Z,35.14
2022-07-26T09:30:52.579Z,35.28
2022-07-26T09:33:55.320Z,35.42
2022-07-26T09:36:58.270Z,35.45
2022-07-26T09:40:05.474Z,35.43
2022-07-26T09:43:09.957Z,35.93
2022-07-26T09:46:13.170Z,35.87
2022-07-26T09:49:21.661Z,35.64
2022-07-26T09:52:24.646Z,35.86
2022-07-26T09:55:35.045Z,35.77
2022-07-26T09:58:42.160Z,35.72
2022-07-26T10:01:45.893Z,35.21
2022-07-26T10:09:10.816Z,35.66
2022-07-26T10:12:16.668Z,35.32
2022-07-26T10:15:40.544Z,35.78
2022-07-26T10:18:44.997Z,35.86
2022-07-26T10:21:47.809Z,35.29
2022-07-26T10:24:57.561Z,35.60
2022-07-26T10:28:01.017Z,35.85
2022-07-26T10:31:25.966Z,35.55
2022-07-26T10:34:37.929Z,36.28
2022-07-26T10:47:04.431Z,35.61
2022-07-26T10:50:08.283Z,35.89
2022-07-26T10:53:19.402Z,35.62
2022-07-26T10:56:22.481Z,35.59
2022-07-26T10:59:55.006Z,36.32
2022-07-26T11:02:59.593Z,36.07
2022-07-26T11:06:12.631Z,36.13
2022-07-26T11:09:16.162Z,36.79
2022-07-26T11:12:20.226Z,36.77
2022-07-26T11:15:23.144Z,36.74
2022-07-26T11:18:30.768Z,37.05
2022-07-26T11:21:33.850Z,36.74
2022-07-26T11:24:40.976Z,36.44
2022-07-26T11:28:02.072Z,35.86
2022-07-26T11:31:04.864Z,36.48
2022-07-26T11:34:20.473Z,36.53
2022-07-26T11:37:23.170Z,35.54
2022-07-26T11:40:45.229Z,35.99
2022-07-26T11:43:49.111Z,35.56
2022-07-26T11:46:52.449Z,36.06
2022-07-26T11:53:22.718Z,36.04
2022-07-26T11:56:27.756Z,36.03
2022-07-26T11:59:34.372Z,35.26
2022-07-26T12:02:37.147Z,36.11
2022-07-26T12:05:42.090Z,36.18
2022-07-26T12:08:55.741Z,36.59
2022-07-26T12:11:59.772Z,36.61
2022-07-26T12:15:05.727Z,36.60
2022-07-26T12:18:10.666Z,36.48
2022-07-26T12:21:13.305Z,35.93
2022-07-26T12:24:36.216Z,36.31
2022-07-26T12:27:46.651Z,35.37
2022-07-26T12:30:49.669Z,36.13
2022-07-26T12:33:52.592Z,36.48
2022-07-26T12:36:55.656Z,36.84
2022-07-26T12:40:10.706Z,36.17
2022-07-26T12:47:43.033Z,37.27
2022-07-26T12:50:46.056Z,37.06
2022-07-26T12:53:48.772Z,36.89
2022-07-26T12:56:51.785Z,37.06
2022-07-26T13:04:24.819Z,36.32
2022-07-26T13:07:27.896Z,36.66
2022-07-26T13:10:33.671Z,36.26
2022-07-26T13:13:37.884Z,36.27
2022-07-26T13:16:40.611Z,36.20
2022-07-26T13:19:44.245Z,35.18
2022-07-26T13:22:46.915Z,34.67
2022-07-26T13:25:50.761Z,34.87
2022-07-26T13:28:53.522Z,35.16
2022-07-26T13:31:58.055Z,33.67
2022-07-26T13:35:00.686Z,33.50
2022-07-26T13:38:03.705Z,33.99
2022-07-26T13:41:06.479Z,33.76
2022-07-26T13:44:09.871Z,34.09
2022-07-26T13:47:14.480Z,32.88
2022-07-26T13:50:17.607Z,32.22
2022-07-26T13:53:20.289Z,31.78
2022-07-26T13:56:23.270Z,30.62
2022-07-26T13:59:26.258Z,30.49
2022-07-26T14:02:29.283Z,30.42
2022-07-26T14:05:32.250Z,29.37
2022-07-26T14:08:34.932Z,29.15
2022-07-26T14:11:39.006Z,29.52
2022-07-26T14:14:41.735Z,29.43
2022-07-26T14:17:47.958Z,28.55
2022-07-26T14:20:50.720Z,28.00
2022-07-26T14:23:55.857Z,27.83
2022-07-26T14:26:59.868Z,27.97
2022-07-26T14:30:05.809Z,28.22
2022-07-26T14:33:09.593Z,28.35
2022-07-26T14:36:13.763Z,28.35
2022-07-26T14:39:16.432Z,28.53
2022-07-26T14:42:19.429Z,28.38
2022-07-26T14:45:22.249Z,28.30
2022-07-26T14:48:51.904Z,28.43
2022-07-26T14:51:48.113Z,28.66
2022-07-26T14:54:51.773Z,28.24
2022-07-26T14:57:54.463Z,28.49
2022-07-26T15:00:57.975Z,28.76
2022-07-26T15:04:00.737Z,28.58
2022-07-26T15:07:04.054Z,28.44
2022-07-26T15:10:09.178Z,28.61
2022-07-26T15:13:13.753Z,27.65
2022-07-26T15:16:16.441Z,27.52
2022-07-26T15:19:23.713Z,27.37
2022-07-26T15:22:28.390Z,27.17
2022-07-26T15:25:31.374Z,27.05
2022-07-26T15:28:34.122Z,27.28
2022-07-26T15:31:37.941Z,27.03
2022-07-26T15:34:40.770Z,26.81
2022-07-26T15:37:44.207Z,26.82
2022-07-26T15:40:47.016Z,26.75
2022-07-26T15:43:49.984Z,26.96
2022-07-26T15:46:53.054Z,27.06
2022-07-26T15:49:56.045Z,26.97
2022-07-26T15:52:58.826Z,26.83
2022-07-26T15:56:02.884Z,26.90
2022-07-26T15:59:09.212Z,26.83
2022-07-26T16:02:12.251Z,27.02
2022-07-26T16:05:15.236Z,27.01
2022-07-26T16:08:17.913Z,27.32
2022-07-26T16:11:21.099Z,27.23
2022-07-26T16:14:23.847Z,27.34
2022-07-26T16:17:26.788Z,27.23
2022-07-26T16:20:29.557Z,27.36
2022-07-26T16:23:32.697Z,27.26
2022-07-26T16:26:36.397Z,26.93
2022-07-26T16:29:39.452Z,26.99
2022-07-26T16:32:42.833Z,26.95
2022-07-26T16:35:45.793Z,26.73
2022-07-26T16:38:48.461Z,26.39
2022-07-26T16:41:51.441Z,26.46
2022-07-26T16:44:54.259Z,26.65
2022-07-26T16:48:00.027Z,26.29
2022-07-26T16:51:03.107Z,26.10
2022-07-26T16:54:06.196Z,26.12
2022-07-26T16:57:08.943Z,26.23
2022-07-26T17:00:15.740Z,26.09
2022-07-26T17:03:19.450Z,26.12
2022-07-26T17:06:22.677Z,26.00
2022-07-26T17:09:25.313Z,25.81
2022-07-26T17:12:28.331Z,25.71
2022-07-26T17:15:30.973Z,25.63
2022-07-26T17:18:33.993Z,25.54
2022-07-26T17:21:36.631Z,25.73
2022-07-26T17:24:39.754Z,25.91
2022-07-26T17:27:42.558Z,25.95
2022-07-26T17:30:45.536Z,25.86
2022-07-26T17:33:48.289Z,25.79
2022-07-26T17:37:01.647Z,25.72
2022-07-26T17:40:09.116Z,25.66
2022-07-26T17:43:12.173Z,25.65
2022-07-26T17:46:15.601Z,25.71
2022-07-26T17:49:18.677Z,25.35
2022-07-26T17:52:21.380Z,25.58
2022-07-26T17:55:24.479Z,25.60
2022-07-26T17:58:27.211Z,25.53
2022-07-26T18:01:30.520Z,25.42
2022-07-26T18:04:33.541Z,25.39
2022-07-26T18:07:36.321Z,25.40
2022-07-26T18:10:39.350Z,25.31
2022-07-26T18:13:41.988Z,25.13
2022-07-26T18:16:48.302Z,25.11
2022-07-26T18:19:57.232Z,25.13
2022-07-26T18:23:00.216Z,24.84
2022-07-26T18:26:03.868Z,24.83
2022-07-26T18:29:07.063Z,25.00
2022-07-26T18:32:09.828Z,24.86
2022-07-26T18:35:12.803Z,24.97
2022-07-26T18:38:15.820Z,24.81
2022-07-26T18:41:19.017Z,25.12
2022-07-26T18:44:22.717Z,24.82
2022-07-26T18:47:25.783Z,24.94
2022-07-26T18:50:31.008Z,24.92
2022-07-26T18:53:35.320Z,24.75
2022-07-26T18:56:38.040Z,24.99
2022-07-26T18:59:41.362Z,24.81
2022-07-26T19:02:45.010Z,24.74
2022-07-26T19:05:48.213Z,25.08
2022-07-26T19:08:51.196Z,24.83
2022-07-26T19:11:54.184Z,24.81
2022-07-26T19:14:59.830Z,24.79
2022-07-26T19:18:11.172Z,24.59
2022-07-26T19:21:13.908Z,24.67
2022-07-26T19:24:16.914Z,24.53
2022-07-26T19:27:20.762Z,24.56
2022-07-26T19:30:24.990Z,24.40
2022-07-26T19:33:29.425Z,24.21
2022-07-26T19:36:32.417Z,24.35
2022-07-26T19:39:35.286Z,24.12
2022-07-26T19:42:38.499Z,24.35
2022-07-26T19:45:41.290Z,24.33
2022-07-26T19:48:44.498Z,24.09
2022-07-26T19:51:49.306Z,23.95
2022-07-26T19:54:52.360Z,23.94
2022-07-26T19:57:54.999Z,23.83
2022-07-26T20:00:58.188Z,24.00
2022-07-26T20:04:02.984Z,24.02
2022-07-26T20:07:05.760Z,24.09
2022-07-26T20:10:09.653Z,24.16
2022-07-26T20:13:13.798Z,23.96
2022-07-26T20:16:17.121Z,23.97
2022-07-26T20:19:19.814Z,24.07
2022-07-26T20:22:23.521Z,24.13
2022-07-26T20:25:26.329Z,23.93
2022-07-26T20:28:29.565Z,23.76
2022-07-26T20:31:32.200Z,23.91
2022-07-26T20:34:35.252Z,23.65
2022-07-26T20:37:38.020Z,23.55
2022-07-26T20:40:41.158Z,23.68
2022-07-26T20:43:45.277Z,23.53
2022-07-26T20:46:48.915Z,23.47
2022-07-26T20:49:51.614Z,23.33
2022-07-26T20:52:54.700Z,23.53
2022-07-26T20:55:57.453Z,23.56
2022-07-26T20:59:02.356Z,23.42
2022-07-26T21:02:05.169Z,23.33
2022-07-26T21:05:08.909Z,23.33
2022-07-26T21:08:11.808Z,23.15
2022-07-26T21:11:14.930Z,23.20
2022-07-26T21:14:17.546Z,23.16
2022-07-26T21:17:20.609Z,23.07
2022-07-26T21:20:35.557Z,23.15
2022-07-26T21:23:38.601Z,22.98
2022-07-26T21:26:42.249Z,23.11
2022-07-26T21:29:45.906Z,23.20
2022-07-26T21:32:48.602Z,23.03
2022-07-26T21:35:51.641Z,23.02
2022-07-26T21:38:54.314Z,23.02
2022-07-26T21:41:57.614Z,23.12
2022-07-26T21:45:00.211Z,23.26
2022-07-26T21:48:03.598Z,23.23
2022-07-26T21:51:06.269Z,23.13
2022-07-26T21:54:09.260Z,23.08
2022-07-26T21:57:11.921Z,22.94
2022-07-26T22:00:16.209Z,22.99
2022-07-26T22:03:19.111Z,23.04
2022-07-26T22:06:21.916Z,23.03
2022-07-26T22:09:24.883Z,23.17
2022-07-26T22:12:30.052Z,22.96
2022-07-26T22:15:34.202Z,22.73
2022-07-26T22:18:37.240Z,22.76
2022-07-26T22:21:40.407Z,22.67
2022-07-26T22:24:43.094Z,22.34
2022-07-26T22:27:46.018Z,22.53
2022-07-26T22:30:48.843Z,22.53
2022-07-26T22:33:51.818Z,22.39
2022-07-26T22:36:54.576Z,22.38
2022-07-26T22:39:57.564Z,22.23
2022-07-26T22:43:00.542Z,22.41
2022-07-26T22:46:03.888Z,22.30
2022-07-26T22:49:06.641Z,22.22
2022-07-26T22:52:15.297Z,22.41
2022-07-26T22:55:18.068Z,22.23
2022-07-26T22:58:21.230Z,22.12
2022-07-26T23:01:23.987Z,22.24
2022-07-26T23:04:27.074Z,22.10
2022-07-26T23:07:32.157Z,22.07
2022-07-26T23:10:35.481Z,21.82
2022-07-26T23:13:38.291Z,21.84
2022-07-26T23:16:41.318Z,21.86
2022-07-26T23:19:44.021Z,21.53
2022-07-26T23:22:47.117Z,21.76
2022-07-26T23:28:54.388Z,21.65
2022-07-26T23:31:57.354Z,21.65
2022-07-26T23:35:00.417Z,21.59
2022-07-26T23:38:03.092Z,21.56
2022-07-26T23:41:06.134Z,21.79
2022-07-26T23:44:08.873Z,21.76
2022-07-26T23:47:11.992Z,21.59
2022-07-26T23:50:15.451Z,21.42
2022-07-26T23:53:18.914Z,21.45
2022-07-26T23:56:29.531Z,21.42
2022-07-26T23:59:32.455Z,21.23
